createdAt,value
2022-10-09T00:01:32.231Z,96529.16
2022-10-09T00:03:59.710Z,96520.66
2022-10-09T00:06:32.934Z,96523.84
2022-10-09T00:09:01.968Z,96522.88
2022-10-09T00:11:30.016Z,96522.72
2022-10-09T00:13:57.144Z,96520.63
2022-10-09T00:16:25.342Z,96518.28
2022-10-09T00:18:53.280Z,96523.72
2022-10-09T00:21:24.913Z,96521.00
2022-10-09T00:23:53.867Z,96520.88
2022-10-09T00:26:21.207Z,96514.13
2022-10-09T00:28:47.873Z,96517.13
2022-10-09T00:31:15.432Z,96520.09
2022-10-09T00:33:42.629Z,96512.72
2022-10-09T00:36:12.265Z,96521.88
2022-10-09T00:38:39.213Z,96514.13
2022-10-09T00:41:06.527Z,96510.34
2022-10-09T00:43:43.403Z,96512.31
2022-10-09T00:46:36.903Z,96512.81
2022-10-09T00:49:20.783Z,96500.91
2022-10-09T00:51:50.193Z,96504.94
2022-10-09T00:54:20.305Z,96507.63
2022-10-09T00:56:47.935Z,96506.81
2022-10-09T00:59:15.206Z,96505.94
2022-10-09T01:01:42.232Z,96502.97
2022-10-09T01:04:09.483Z,96500.50
2022-10-09T01:07:17.354Z,96498.91
2022-10-09T01:10:12.624Z,96498.00
2022-10-09T01:12:54.798Z,96495.22
2022-10-09T01:15:30.590Z,96491.88
2022-10-09T01:18:12.771Z,96482.56
2022-10-09T01:20:49.268Z,96479.31
2022-10-09T01:23:32.261Z,96478.16
2022-10-09T01:26:11.753Z,96479.44
2022-10-09T01:28:42.134Z,96473.94
2022-10-09T01:31:10.777Z,96465.44
2022-10-09T01:33:38.093Z,96466.31
2022-10-09T01:36:06.807Z,96473.78
2022-10-09T01:38:34.705Z,96456.16
2022-10-09T01:41:04.314Z,96451.00
2022-10-09T01:43:30.797Z,96453.50
2022-10-09T01:46:23.532Z,96445.13
2022-10-09T01:49:12.645Z,96451.38
2022-10-09T01:51:57.081Z,96446.88
2022-10-09T01:55:05.555Z,96439.63
2022-10-09T01:58:29.478Z,96437.97
2022-10-09T02:01:10.872Z,96435.03
2022-10-09T02:03:40.720Z,96432.25
2022-10-09T02:06:11.009Z,96428.56
2022-10-09T02:08:39.257Z,96436.91
2022-10-09T02:11:06.653Z,96429.09
2022-10-09T02:13:35.537Z,96422.69
2022-10-09T02:16:13.935Z,96420.69
2022-10-09T02:18:43.593Z,96418.56
2022-10-09T02:21:15.604Z,96412.31
2022-10-09T02:23:45.025Z,96414.09
2022-10-09T02:26:12.905Z,96415.13
2022-10-09T02:28:45.084Z,96412.13
2022-10-09T02:31:20.072Z,96407.31
2022-10-09T02:33:46.919Z,96406.28
2022-10-09T02:36:14.297Z,96399.31
2022-10-09T02:38:40.801Z,96405.63
2022-10-09T02:41:07.298Z,96408.97
2022-10-09T02:43:33.816Z,96405.16
2022-10-09T02:46:00.401Z,96407.50
2022-10-09T02:48:27.001Z,96410.78
2022-10-09T02:50:53.538Z,96405.25
2022-10-09T02:53:20.095Z,96402.84
2022-10-09T02:55:46.669Z,96395.84
2022-10-09T02:58:13.230Z,96404.28
2022-10-09T03:00:39.766Z,96408.31
2022-10-09T03:03:06.298Z,96402.13
2022-10-09T03:05:32.879Z,96402.81
2022-10-09T03:07:59.582Z,96399.16
2022-10-09T03:10:26.348Z,96394.41
2022-10-09T03:12:52.955Z,96400.63
2022-10-09T03:15:19.521Z,96399.69
2022-10-09T03:17:46.082Z,96400.06
2022-10-09T03:20:12.676Z,96397.91
2022-10-09T03:22:39.256Z,96407.06
2022-10-09T03:25:06.404Z,96396.00
2022-10-09T03:27:33.544Z,96397.94
2022-10-09T03:30:00.080Z,96398.44
2022-10-09T03:32:26.786Z,96395.28
2022-10-09T03:34:53.392Z,96396.09
2022-10-09T03:37:19.963Z,96393.31
2022-10-09T03:39:46.550Z,96396.19
2022-10-09T03:42:13.250Z,96388.09
2022-10-09T03:44:39.816Z,96390.78
2022-10-09T03:47:06.799Z,96388.69
2022-10-09T03:49:33.339Z,96394.53
2022-10-09T03:52:00.132Z,96386.53
2022-10-09T03:54:26.762Z,96387.75
2022-10-09T03:56:53.359Z,96393.88
2022-10-09T03:59:19.948Z,96387.81
2022-10-09T04:01:46.512Z,96392.16
2022-10-09T04:04:13.038Z,96389.09
2022-10-09T04:06:39.584Z,96392.13
2022-10-09T04:09:06.111Z,96385.44
2022-10-09T04:11:32.823Z,96404.59
2022-10-09T04:14:00.205Z,96388.81
2022-10-09T04:16:26.806Z,96389.75
2022-10-09T04:18:53.374Z,96392.56
2022-10-09T04:21:19.977Z,96399.16
2022-10-09T04:23:46.491Z,96390.63
2022-10-09T04:26:13.666Z,96393.91
2022-10-09T04:28:40.381Z,96384.47
2022-10-09T04:31:07.016Z,96388.81
2022-10-09T04:33:33.817Z,96384.59
2022-10-09T04:36:00.399Z,96379.25
2022-10-09T04:38:26.949Z,96384.44
2022-10-09T04:41:04.376Z,96379.47
2022-10-09T04:43:31.165Z,96374.22
2022-10-09T04:45:57.905Z,96371.31
2022-10-09T04:48:24.988Z,96374.69
2022-10-09T04:50:51.517Z,96369.88
2022-10-09T04:53:18.043Z,96368.25
2022-10-09T04:55:45.122Z,96368.25
2022-10-09T04:58:12.873Z,96368.22
2022-10-09T05:00:41.579Z,96371.16
2022-10-09T05:03:08.364Z,96364.03
2022-10-09T05:05:34.926Z,96364.41
2022-10-09T05:08:01.433Z,96363.84
2022-10-09T05:10:28.105Z,96365.22
2022-10-09T05:12:54.626Z,96359.81
2022-10-09T05:15:21.166Z,96372.78
2022-10-09T05:17:47.699Z,96359.78
2022-10-09T05:20:16.804Z,96365.22
2022-10-09T05:22:47.483Z,96359.88
2022-10-09T05:25:14.940Z,96362.59
2022-10-09T05:27:41.601Z,96355.97
2022-10-09T05:30:08.924Z,96360.34
2022-10-09T05:32:35.856Z,96354.38
2022-10-09T05:35:02.903Z,96354.59
2022-10-09T05:37:29.482Z,96353.81
2022-10-09T05:39:55.958Z,96355.63
2022-10-09T05:42:22.519Z,96354.78
2022-10-09T05:44:49.043Z,96358.06
2022-10-09T05:47:17.870Z,96362.88
2022-10-09T05:49:44.374Z,96354.78
2022-10-09T05:52:10.908Z,96360.09
2022-10-09T05:54:37.466Z,96356.75
2022-10-09T05:57:04.933Z,96363.06
2022-10-09T05:59:31.487Z,96360.88
2022-10-09T06:02:01.936Z,96354.28
2022-10-09T06:04:28.530Z,96358.56
2022-10-09T06:06:55.277Z,96363.94
2022-10-09T06:09:24.016Z,96361.34
2022-10-09T06:11:51.454Z,96374.75
2022-10-09T06:14:18.520Z,96357.56
2022-10-09T06:16:45.519Z,96367.94
2022-10-09T06:19:14.889Z,96360.53
2022-10-09T06:21:42.624Z,96366.66
2022-10-09T06:24:17.621Z,96372.78
2022-10-09T06:26:44.185Z,96371.19
2022-10-09T06:29:10.691Z,96379.69
2022-10-09T06:31:37.917Z,96376.84
2022-10-09T06:34:04.772Z,96372.94
2022-10-09T06:36:34.498Z,96377.88
2022-10-09T06:39:03.513Z,96373.53
2022-10-09T06:41:30.831Z,96379.31
2022-10-09T06:44:02.429Z,96381.28
2022-10-09T06:46:30.434Z,96383.72
2022-10-09T06:48:59.648Z,96394.22
2022-10-09T06:51:28.085Z,96390.59
2022-10-09T06:53:56.799Z,96382.41
2022-10-09T06:56:24.554Z,96398.94
2022-10-09T06:58:51.596Z,96392.25
2022-10-09T07:01:32.026Z,96397.97
2022-10-09T07:04:02.976Z,96395.06
2022-10-09T07:06:31.455Z,96399.97
2022-10-09T07:09:00.362Z,96398.69
2022-10-09T07:11:29.484Z,96392.84
2022-10-09T07:13:58.246Z,96385.91
2022-10-09T07:16:31.075Z,96396.72
2022-10-09T07:18:59.975Z,96392.59
2022-10-09T07:21:26.759Z,96389.88
2022-10-09T07:23:56.043Z,96386.03
2022-10-09T07:26:27.396Z,96385.44
2022-10-09T07:28:54.415Z,96383.00
2022-10-09T07:31:22.859Z,96382.50
2022-10-09T07:33:50.744Z,96380.22
2022-10-09T07:36:17.670Z,96377.94
2022-10-09T07:38:44.872Z,96385.56
2022-10-09T07:41:12.816Z,96379.91
2022-10-09T07:43:41.002Z,96385.59
2022-10-09T07:46:11.448Z,96384.28
2022-10-09T07:48:38.591Z,96389.06
2022-10-09T07:51:10.517Z,96380.94
2022-10-09T07:53:37.806Z,96382.59
2022-10-09T07:56:05.330Z,96380.38
2022-10-09T07:58:32.002Z,96377.22
2022-10-09T08:01:08.423Z,96378.50
2022-10-09T08:03:36.215Z,96379.16
2022-10-09T08:06:03.050Z,96376.91
2022-10-09T08:08:29.716Z,96373.63
2022-10-09T08:10:56.284Z,96377.28
2022-10-09T08:13:22.806Z,96371.38
2022-10-09T08:15:49.374Z,96374.28
2022-10-09T08:18:15.953Z,96378.25
2022-10-09T08:20:42.518Z,96383.00
2022-10-09T08:23:09.684Z,96370.53
2022-10-09T08:25:37.008Z,96370.22
2022-10-09T08:28:04.861Z,96367.44
2022-10-09T08:30:31.486Z,96368.31
2022-10-09T08:32:58.021Z,96367.53
2022-10-09T08:35:24.620Z,96367.66
2022-10-09T08:37:51.243Z,96359.13
2022-10-09T08:40:33.789Z,96356.31
2022-10-09T08:43:04.598Z,96359.19
2022-10-09T08:45:32.983Z,96365.47
2022-10-09T08:48:04.049Z,96351.97
2022-10-09T08:50:34.791Z,96356.81
2022-10-09T08:53:39.955Z,96348.78
2022-10-09T08:56:13.382Z,96357.84
2022-10-09T08:58:42.751Z,96346.69
2022-10-09T09:01:35.348Z,96351.22
2022-10-09T09:04:17.171Z,96342.06
2022-10-09T09:07:05.967Z,96341.09
2022-10-09T09:09:52.116Z,96344.28
2022-10-09T09:12:34.123Z,96343.50
2022-10-09T09:15:37.510Z,96334.88
2022-10-09T09:18:25.827Z,96335.72
2022-10-09T09:20:55.064Z,96331.53
2022-10-09T09:23:28.744Z,96328.31
2022-10-09T09:25:56.222Z,96324.28
2022-10-09T09:28:26.275Z,96325.00
2022-10-09T09:30:58.478Z,96331.09
2022-10-09T09:33:51.413Z,96322.69
2022-10-09T09:36:26.606Z,96322.84
2022-10-09T09:39:44.306Z,96306.38
2022-10-09T09:41:41.856Z,96303.72
2022-10-09T09:44:11.916Z,96306.75
2022-10-09T09:46:39.185Z,96307.66
2022-10-09T09:49:20.175Z,96305.47
2022-10-09T09:51:49.158Z,96308.69
2022-10-09T09:54:22.609Z,96302.41
2022-10-09T09:57:12.032Z,96306.81
2022-10-09T09:59:42.987Z,96298.91
2022-10-09T10:02:14.319Z,96292.13
2022-10-09T10:04:52.591Z,96294.88
2022-10-09T10:07:36.870Z,96298.44
2022-10-09T10:10:12.932Z,96293.50
2022-10-09T10:12:41.219Z,96290.13
2022-10-09T10:15:26.666Z,96281.31
2022-10-09T10:18:17.360Z,96285.41
2022-10-09T10:20:51.055Z,96281.47
2022-10-09T10:23:31.234Z,96285.16
2022-10-09T10:26:00.641Z,96280.13
2022-10-09T10:28:35.534Z,96275.72
2022-10-09T10:31:06.816Z,96269.28
2022-10-09T10:33:35.793Z,96273.13
2022-10-09T10:36:02.351Z,96268.78
2022-10-09T10:38:35.279Z,96264.44
2022-10-09T10:41:15.742Z,96260.50
2022-10-09T10:43:45.678Z,96265.44
2022-10-09T10:46:23.876Z,96263.53
2022-10-09T10:48:51.636Z,96263.47
2022-10-09T10:51:24.209Z,96258.31
2022-10-09T10:54:22.122Z,96252.03
2022-10-09T10:57:13.143Z,96256.28
2022-10-09T10:59:50.142Z,96253.00
2022-10-09T11:03:00.887Z,96260.88
2022-10-09T11:05:51.419Z,96246.44
2022-10-09T11:08:45.126Z,96247.00
2022-10-09T11:11:33.630Z,96247.22
2022-10-09T11:14:26.081Z,96246.13
2022-10-09T11:16:56.424Z,96241.13
2022-10-09T11:19:32.822Z,96230.00
2022-10-09T11:22:05.573Z,96224.50
2022-10-09T11:25:00.400Z,96224.78
2022-10-09T11:27:58.214Z,96223.56
2022-10-09T11:30:28.514Z,96217.91
2022-10-09T11:33:10.222Z,96219.41
2022-10-09T11:35:48.414Z,96206.53
2022-10-09T11:38:37.688Z,96210.34
2022-10-09T11:41:07.312Z,96206.75
2022-10-09T11:43:52.326Z,96209.34
2022-10-09T11:46:36.741Z,96196.06
2022-10-09T11:49:31.140Z,96194.59
2022-10-09T11:52:10.994Z,96198.00
2022-10-09T11:54:37.542Z,96191.44
2022-10-09T11:57:06.386Z,96182.94
2022-10-09T11:59:42.244Z,96180.28
2022-10-09T12:02:24.288Z,96181.72
2022-10-09T12:04:54.762Z,96177.66
2022-10-09T12:10:23.466Z,96162.72
2022-10-09T12:12:58.372Z,96158.22
2022-10-09T12:15:39.045Z,96155.34
2022-10-09T12:18:20.904Z,96149.53
2022-10-09T12:20:49.831Z,96143.94
2022-10-09T12:23:26.727Z,96144.16
2022-10-09T12:25:55.472Z,96134.66
2022-10-09T12:28:28.121Z,96130.59
2022-10-09T12:30:56.591Z,96126.44
2022-10-09T12:33:33.634Z,96132.09
2022-10-09T12:36:03.659Z,96123.94
2022-10-09T12:38:34.318Z,96122.22
2022-10-09T12:41:04.786Z,96115.81
2022-10-09T12:43:32.634Z,96112.25
2022-10-09T12:46:00.226Z,96109.28
2022-10-09T12:48:29.103Z,96105.25
2022-10-09T12:50:55.948Z,96110.91
2022-10-09T12:53:27.917Z,96103.41
2022-10-09T12:56:00.609Z,96108.25
2022-10-09T12:58:31.588Z,96101.25
2022-10-09T13:01:01.044Z,96092.13
2022-10-09T13:03:38.387Z,96098.94
2022-10-09T13:06:14.871Z,96093.09
2022-10-09T13:08:41.893Z,96093.88
2022-10-09T13:11:29.335Z,96080.94
2022-10-09T13:13:56.337Z,96071.81
2022-10-09T13:16:24.227Z,96071.91
2022-10-09T13:18:59.416Z,96076.06
2022-10-09T13:21:34.346Z,96082.31
2022-10-09T13:24:10.147Z,96075.22
2022-10-09T13:26:38.927Z,96077.53
2022-10-09T13:29:07.448Z,96074.84
2022-10-09T13:31:36.505Z,96076.75
2022-10-09T13:34:13.465Z,96069.34
2022-10-09T13:36:40.261Z,96066.38
2022-10-09T13:39:07.151Z,96071.97
2022-10-09T13:41:33.977Z,96068.47
2022-10-09T13:44:00.614Z,96056.00
2022-10-09T13:46:27.201Z,96053.59
2022-10-09T13:48:53.864Z,96054.06
2022-10-09T13:51:20.576Z,96048.41
2022-10-09T13:53:47.118Z,96050.50
2022-10-09T13:56:13.638Z,96046.56
2022-10-09T13:58:40.216Z,96049.72
2022-10-09T14:01:09.200Z,96036.59
2022-10-09T14:03:35.896Z,96040.53
2022-10-09T14:06:03.818Z,96038.16
2022-10-09T14:08:30.879Z,96024.22
2022-10-09T14:11:00.578Z,96034.09
2022-10-09T14:13:28.541Z,96029.66
2022-10-09T14:15:55.375Z,96023.19
2022-10-09T14:18:22.210Z,96018.53
2022-10-09T14:20:48.781Z,96022.03
2022-10-09T14:23:15.373Z,96016.47
2022-10-09T14:25:42.073Z,96015.03
2022-10-09T14:28:08.675Z,96008.22
2022-10-09T14:30:40.027Z,96017.72
2022-10-09T14:33:06.357Z,96018.44
2022-10-09T14:35:32.880Z,96010.91
2022-10-09T14:37:59.444Z,96011.63
2022-10-09T14:40:26.071Z,96002.91
2022-10-09T14:42:52.754Z,95998.28
2022-10-09T14:45:19.406Z,95994.25
2022-10-09T14:47:45.915Z,95998.28
2022-10-09T14:50:12.478Z,95996.97
2022-10-09T14:52:39.011Z,95996.44
2022-10-09T14:55:05.860Z,95994.56
2022-10-09T14:57:35.410Z,95996.53
2022-10-09T15:00:04.160Z,95988.41
2022-10-09T15:02:30.875Z,95988.75
2022-10-09T15:04:57.494Z,95984.41
2022-10-09T15:07:24.474Z,95985.38
2022-10-09T15:09:51.003Z,95983.91
2022-10-09T15:12:17.496Z,95977.09
2022-10-09T15:14:44.007Z,95977.19
2022-10-09T15:17:10.534Z,95974.97
2022-10-09T15:19:37.718Z,95977.75
2022-10-09T15:22:04.798Z,95972.78
2022-10-09T15:24:31.426Z,95966.06
2022-10-09T15:26:58.023Z,95966.75
2022-10-09T15:29:24.533Z,95967.16
2022-10-09T15:31:51.718Z,95967.63
2022-10-09T15:34:19.553Z,95958.28
2022-10-09T15:36:46.645Z,95962.31
2022-10-09T15:39:13.511Z,95962.69
2022-10-09T15:41:41.921Z,95949.66
2022-10-09T15:44:17.414Z,95951.56
2022-10-09T15:46:45.097Z,95956.38
2022-10-09T15:49:11.786Z,95943.19
2022-10-09T15:51:38.514Z,95941.06
2022-10-09T15:54:06.142Z,95945.72
2022-10-09T15:56:38.793Z,95945.19
2022-10-09T15:59:06.734Z,95938.19
2022-10-09T16:01:33.266Z,95938.34
2022-10-09T16:03:59.853Z,95943.78
2022-10-09T16:06:26.398Z,95935.25
2022-10-09T16:08:58.408Z,95943.59
2022-10-09T16:11:26.814Z,95945.19
2022-10-09T16:13:54.641Z,95939.75
2022-10-09T16:16:23.637Z,95941.72
2022-10-09T16:18:50.897Z,95939.41
2022-10-09T16:21:22.681Z,95944.03
2022-10-09T16:23:52.253Z,95936.84
2022-10-09T16:26:22.069Z,95940.59
2022-10-09T16:28:49.198Z,95941.53
2022-10-09T16:31:21.013Z,95940.72
2022-10-09T16:33:47.785Z,95938.00
2022-10-09T16:36:15.098Z,95939.47
2022-10-09T16:38:41.952Z,95937.84
2022-10-09T16:41:12.909Z,95941.34
2022-10-09T16:43:39.607Z,95944.22
2022-10-09T16:46:15.541Z,95943.94
2022-10-09T16:48:42.107Z,95948.25
2022-10-09T16:51:14.437Z,95943.50
2022-10-09T16:53:42.055Z,95945.50
2022-10-09T16:56:16.517Z,95957.88
2022-10-09T16:58:43.993Z,95962.59
2022-10-09T17:01:11.882Z,95969.09
2022-10-09T17:03:42.943Z,95964.69
2022-10-09T17:06:11.805Z,95958.31
2022-10-09T17:08:39.022Z,95953.72
2022-10-09T17:11:07.839Z,95962.06
2022-10-09T17:13:34.524Z,95966.00
2022-10-09T17:16:03.729Z,95963.72
2022-10-09T17:18:30.280Z,95962.94
2022-10-09T17:20:57.235Z,95964.50
2022-10-09T17:23:24.207Z,95949.50
2022-10-09T17:25:50.862Z,95962.88
2022-10-09T17:28:17.404Z,95964.53
2022-10-09T17:30:44.000Z,95961.22
2022-10-09T17:33:10.498Z,95954.59
2022-10-09T17:35:40.860Z,95956.91
2022-10-09T17:38:08.998Z,95957.41
2022-10-09T17:40:39.698Z,95956.09
2022-10-09T17:43:07.160Z,95964.28
2022-10-09T17:45:40.783Z,95953.47
2022-10-09T17:48:08.155Z,95962.66
2022-10-09T17:50:35.779Z,95957.44
2022-10-09T17:53:02.914Z,95961.34
2022-10-09T17:55:29.753Z,95961.00
2022-10-09T17:57:56.811Z,95962.84
2022-10-09T18:00:23.901Z,95962.16
2022-10-09T18:02:50.429Z,95959.47
2022-10-09T18:05:16.986Z,95961.41
2022-10-09T18:07:43.525Z,95952.44
2022-10-09T18:10:10.100Z,95944.03
2022-10-09T18:12:36.667Z,95948.34
2022-10-09T18:15:03.740Z,95946.84
2022-10-09T18:17:34.796Z,95942.31
2022-10-09T18:20:04.379Z,95950.22
2022-10-09T18:22:31.142Z,95948.53
2022-10-09T18:24:58.584Z,95944.81
2022-10-09T18:27:25.728Z,95941.09
2022-10-09T18:29:52.354Z,95943.72
2022-10-09T18:32:18.930Z,95935.94
2022-10-09T18:34:46.704Z,95940.97
2022-10-09T18:37:13.510Z,95929.63
2022-10-09T18:39:40.066Z,95932.22
2022-10-09T18:42:06.592Z,95930.25
2022-10-09T18:44:40.003Z,95930.41
2022-10-09T18:47:11.769Z,95935.06
2022-10-09T18:49:42.413Z,95933.16
2022-10-09T18:52:10.472Z,95937.53
2022-10-09T18:54:38.612Z,95931.47
2022-10-09T18:57:05.430Z,95928.84
2022-10-09T18:59:32.606Z,95928.84
2022-10-09T19:01:59.127Z,95924.84
2022-10-09T19:04:25.654Z,95926.56
2022-10-09T19:06:54.255Z,95926.38
2022-10-09T19:09:20.930Z,95919.59
2022-10-09T19:11:47.455Z,95926.03
2022-10-09T19:14:15.725Z,95926.28
2022-10-09T19:16:42.291Z,95918.16
2022-10-09T19:19:08.865Z,95922.72
2022-10-09T19:21:36.333Z,95923.38
2022-10-09T19:24:06.073Z,95926.13
2022-10-09T19:26:33.089Z,95928.31
2022-10-09T19:29:00.144Z,95927.53
2022-10-09T19:31:26.922Z,95933.03
2022-10-09T19:33:53.443Z,95934.56
2022-10-09T19:36:20.005Z,95921.22
2022-10-09T19:38:46.801Z,95926.38
2022-10-09T19:41:15.294Z,95917.13
2022-10-09T19:43:42.207Z,95920.81
2022-10-09T19:46:14.479Z,95926.38
2022-10-09T19:48:41.205Z,95918.81
2022-10-09T19:51:10.395Z,95920.03
2022-10-09T19:53:36.966Z,95919.66
2022-10-09T19:56:19.403Z,95918.50
2022-10-09T19:58:48.403Z,95914.31
2022-10-09T20:01:17.444Z,95910.16
2022-10-09T20:03:44.991Z,95913.56
2022-10-09T20:06:12.217Z,95917.94
2022-10-09T20:08:40.534Z,95913.25
2022-10-09T20:11:07.777Z,95926.06
2022-10-09T20:13:36.674Z,95914.56
2022-10-09T20:16:05.803Z,95922.97
2022-10-09T20:18:33.117Z,95913.09
2022-10-09T20:21:00.148Z,95912.94
2022-10-09T20:23:26.769Z,95912.25
2022-10-09T20:26:00.936Z,95911.78
2022-10-09T20:28:30.453Z,95905.06
2022-10-09T20:31:06.228Z,95901.53
2022-10-09T20:33:34.279Z,95912.25
2022-10-09T20:36:01.066Z,95909.03
2022-10-09T20:38:27.843Z,95908.78
2022-10-09T20:40:54.594Z,95911.78
2022-10-09T20:43:21.115Z,95904.16
2022-10-09T20:45:47.625Z,95910.47
2022-10-09T20:48:14.247Z,95905.06
2022-10-09T20:50:41.830Z,95902.38
2022-10-09T20:53:09.993Z,95900.66
2022-10-09T20:55:36.607Z,95900.66
2022-10-09T20:58:04.540Z,95894.25
2022-10-09T21:00:31.090Z,95898.97
2022-10-09T21:02:57.644Z,95899.06
2022-10-09T21:05:24.172Z,95897.22
2022-10-09T21:07:50.964Z,95893.66
2022-10-09T21:10:17.535Z,95904.63
2022-10-09T21:12:44.147Z,95898.50
2022-10-09T21:15:10.794Z,95900.34
2022-10-09T21:17:37.307Z,95896.06
2022-10-09T21:20:04.268Z,95901.94
2022-10-09T21:22:31.813Z,95898.72
2022-10-09T21:24:58.386Z,95908.44
2022-10-09T21:27:24.983Z,95908.06
2022-10-09T21:29:51.536Z,95904.28
2022-10-09T21:32:18.178Z,95909.22
2022-10-09T21:34:45.307Z,95899.34
2022-10-09T21:37:21.417Z,95908.63
2022-10-09T21:39:48.851Z,95904.75
2022-10-09T21:42:15.389Z,95903.19
2022-10-09T21:44:41.960Z,95905.06
2022-10-09T21:47:16.377Z,95907.06
2022-10-09T21:49:42.945Z,95901.59
2022-10-09T21:52:10.209Z,95905.97
2022-10-09T21:54:36.945Z,95907.56
2022-10-09T21:57:03.590Z,95902.81
2022-10-09T21:59:30.205Z,95899.94
2022-10-09T22:01:56.879Z,95901.63
2022-10-09T22:04:23.515Z,95901.06
2022-10-09T22:06:50.143Z,95905.78
2022-10-09T22:09:16.714Z,95905.13
2022-10-09T22:11:44.583Z,95902.41
2022-10-09T22:14:11.976Z,95907.06
2022-10-09T22:16:38.518Z,95899.75
2022-10-09T22:19:05.185Z,95910.22
2022-10-09T22:21:32.043Z,95893.44
2022-10-09T22:24:00.394Z,95895.03
2022-10-09T22:26:27.121Z,95893.31
2022-10-09T22:28:53.676Z,95891.94
2022-10-09T22:31:23.488Z,95890.53
2022-10-09T22:33:55.495Z,95894.44
2022-10-09T22:36:24.334Z,95888.31
2022-10-09T22:38:54.333Z,95881.34
2022-10-09T22:41:22.491Z,95886.28
2022-10-09T22:43:51.690Z,95883.75
2022-10-09T22:46:21.447Z,95881.94
2022-10-09T22:48:48.063Z,95883.00
2022-10-09T22:51:16.855Z,95878.41
2022-10-09T22:53:44.749Z,95880.94
2022-10-09T22:56:15.538Z,95877.28
2022-10-09T22:58:42.783Z,95879.97
2022-10-09T23:01:15.578Z,95884.88
2022-10-09T23:03:42.178Z,95884.53
2022-10-09T23:06:16.667Z,95875.59
2022-10-09T23:08:46.313Z,95879.00
2022-10-09T23:11:14.021Z,95876.19
2022-10-09T23:13:41.061Z,95878.88
2022-10-09T23:16:10.210Z,95875.59
2022-10-09T23:18:37.231Z,95875.38
2022-10-09T23:21:10.580Z,95876.13
2022-10-09T23:23:37.170Z,95884.06
2022-10-09T23:26:08.509Z,95879.47
2022-10-09T23:28:35.824Z,95874.41
2022-10-09T23:31:15.259Z,95868.47
2022-10-09T23:33:43.717Z,95873.75
2022-10-09T23:36:13.825Z,95864.72
2022-10-09T23:38:41.091Z,95868.84
2022-10-09T23:41:11.336Z,95870.13
2022-10-09T23:43:39.585Z,95873.66
2022-10-09T23:46:10.058Z,95869.22
2022-10-09T23:48:36.705Z,95870.25
2022-10-09T23:51:05.098Z,95860.25
2022-10-09T23:53:32.359Z,95862.50
2022-10-09T23:55:59.029Z,95861.84
2022-10-09T23:58:25.639Z,95863.69
